Time,TemperatureF,DewpointF,PressureIn,WindDirection,WindDirectionDegrees,WindSpeedMPH,WindSpeedGustMPH,Humidity,HourlyPrecipIn,Conditions,Clouds,dailyrainin,SoftwareType,DateUTC
2013-07-31 00:00:00,81.9,78.0,30.14,ENE,65,0.0,2.0,88,0.00,,,0.00,weatherlink.com 1.10,2013-07-31 04:00:00,
2013-07-31 00:15:00,81.8,78.0,30.14,ENE,65,0.0,1.0,88,0.00,,,0.00,weatherlink.com 1.10,2013-07-31 04:15:00,
2013-07-31 00:30:00,81.6,78.0,30.14,ENE,65,0.0,2.0,88,0.00,,,0.00,weatherlink.com 1.10,2013-07-31 04:30:00,
2013-07-31 00:45:00,81.6,78.0,30.14,ENE,65,0.0,2.0,88,0.00,,,0.00,weatherlink.com 1.10,2013-07-31 04:45:00,
2013-07-31 01:00:00,81.7,78.0,30.14,ENE,65,0.0,1.0,89,0.00,,,0.00,weatherlink.com 1.10,2013-07-31 05:00:00,
2013-07-31 01:16:00,81.4,78.0,30.13,ENE,65,0.0,1.0,90,0.00,,,0.00,weatherlink.com 1.10,2013-07-31 05:16:00,
2013-07-31 01:30:00,81.2,78.0,30.13,ENE,65,0.0,1.0,90,0.00,,,0.00,weatherlink.com 1.10,2013-07-31 05:30:00,
2013-07-31 01:45:00,81.1,78.0,30.12,ENE,65,0.0,2.0,90,0.00,,,0.00,weatherlink.com 1.10,2013-07-31 05:45:00,
2013-07-31 02:00:00,80.9,77.0,30.11,ENE,65,0.0,3.0,88,0.00,,,0.00,weatherlink.com 1.10,2013-07-31 06:00:00,
2013-07-31 02:15:00,80.7,77.0,30.11,ENE,65,0.0,0.0,88,0.00,,,0.00,weatherlink.com 1.10,2013-07-31 06:15:00,
2013-07-31 02:30:00,80.5,77.0,30.11,ENE,65,0.0,0.0,88,0.00,,,0.00,weatherlink.com 1.10,2013-07-31 06:30:00,
2013-07-31 02:45:00,80.1,76.0,30.10,ENE,65,0.0,0.0,88,0.00,,,0.00,weatherlink.com 1.10,2013-07-31 06:45:00,
2013-07-31 03:00:00,79.7,76.0,30.09,ENE,65,0.0,1.0,89,0.00,,,0.00,weatherlink.com 1.10,2013-07-31 07:00:00,
2013-07-31 03:15:00,79.7,76.0,30.09,ENE,65,0.0,1.0,89,0.00,,,0.00,weatherlink.com 1.10,2013-07-31 07:15:00,
2013-07-31 03:30:00,79.3,76.0,30.08,ENE,65,0.0,0.0,90,0.00,,,0.00,weatherlink.com 1.10,2013-07-31 07:30:00,
2013-07-31 03:46:00,78.7,76.0,30.08,ENE,65,0.0,0.0,92,0.00,,,0.00,weatherlink.com 1.10,2013-07-31 07:46:00,
2013-07-31 04:01:00,78.2,76.0,30.08,ENE,65,0.0,0.0,92,0.00,,,0.00,weatherlink.com 1.10,2013-07-31 08:01:00,
2013-07-31 04:16:00,78.1,76.0,30.08,ENE,65,0.0,0.0,94,0.00,,,0.00,weatherlink.com 1.10,2013-07-31 08:16:00,
2013-07-31 04:31:00,78.2,76.0,30.08,ENE,65,0.0,0.0,94,0.00,,,0.00,weatherlink.com 1.10,2013-07-31 08:31:00,
2013-07-31 04:46:00,77.8,76.0,30.07,ENE,65,0.0,0.0,94,0.00,,,0.00,weatherlink.com 1.10,2013-07-31 08:46:00,
2013-07-31 05:01:00,77.8,76.0,30.07,ENE,65,0.0,0.0,95,0.00,,,0.00,weatherlink.com 1.10,2013-07-31 09:01:00,
2013-07-31 05:16:00,78.4,77.0,30.07,ENE,65,0.0,7.0,95,0.00,,,0.00,weatherlink.com 1.10,2013-07-31 09:16:00,
2013-07-31 05:31:00,79.0,77.0,30.08,ENE,65,0.0,1.0,93,0.00,,,0.00,weatherlink.com 1.10,2013-07-31 09:31:00,
2013-07-31 05:46:00,79.4,77.0,30.08,ENE,65,3.0,3.0,92,0.00,,,0.00,weatherlink.com 1.10,2013-07-31 09:46:00,
2013-07-31 06:01:00,79.6,77.0,30.09,ENE,65,0.0,2.0,91,0.00,,,0.00,weatherlink.com 1.10,2013-07-31 10:01:00,
2013-07-31 06:16:00,79.7,77.0,30.09,ENE,65,0.0,1.0,90,0.00,,,0.00,weatherlink.com 1.10,2013-07-31 10:16:00,
2013-07-31 06:31:00,79.6,77.0,30.09,ENE,65,0.0,0.0,91,0.00,,,0.00,weatherlink.com 1.10,2013-07-31 10:31:00,
2013-07-31 06:46:00,79.6,77.0,30.10,ENE,65,0.0,1.0,91,0.00,,,0.00,weatherlink.com 1.10,2013-07-31 10:46:00,
2013-07-31 07:01:00,79.8,77.0,30.11,ENE,65,0.0,1.0,91,0.00,,,0.00,weatherlink.com 1.10,2013-07-31 11:01:00,
2013-07-31 07:16:00,79.5,77.0,30.11,ENE,65,0.0,0.0,92,0.00,,,0.00,weatherlink.com 1.10,2013-07-31 11:16:00,
2013-07-31 07:31:00,79.6,77.0,30.11,ENE,65,1.0,2.0,92,0.00,,,0.00,weatherlink.com 1.10,2013-07-31 11:31:00,
2013-07-31 07:46:00,80.6,78.0,30.12,ENE,65,0.0,2.0,90,0.00,,,0.00,weatherlink.com 1.10,2013-07-31 11:46:00,
2013-07-31 08:01:00,82.1,78.0,30.12,ENE,65,2.0,5.0,87,0.00,,,0.00,weatherlink.com 1.10,2013-07-31 12:01:00,
2013-07-31 08:16:00,83.6,78.0,30.12,East,92,2.0,9.0,83,0.00,,,0.00,weatherlink.com 1.10,2013-07-31 12:16:00,
2013-07-31 08:31:00,84.6,78.0,30.13,ENE,74,1.0,8.0,81,0.00,,,0.00,weatherlink.com 1.10,2013-07-31 12:31:00,
2013-07-31 08:46:00,84.6,77.0,30.14,ENE,59,1.0,7.0,79,0.00,,,0.00,weatherlink.com 1.10,2013-07-31 12:46:00,
2013-07-31 09:01:00,84.6,78.0,30.14,ENE,78,2.0,8.0,80,0.00,,,0.00,weatherlink.com 1.10,2013-07-31 13:01:00,
2013-07-31 09:16:00,85.2,78.0,30.14,NE,43,3.0,7.0,79,0.00,,,0.00,weatherlink.com 1.10,2013-07-31 13:16:00,
2013-07-31 09:31:00,85.4,78.0,30.14,ENE,74,3.0,9.0,78,0.00,,,0.00,weatherlink.com 1.10,2013-07-31 13:31:00,
2013-07-31 09:46:00,85.7,77.0,30.14,ENE,59,4.0,10.0,76,0.00,,,0.00,weatherlink.com 1.10,2013-07-31 13:46:00,
2013-07-31 10:01:00,85.4,78.0,30.14,ENE,64,3.0,11.0,78,0.00,,,0.00,weatherlink.com 1.10,2013-07-31 14:01:00,
2013-07-31 10:16:00,85.4,79.0,30.14,East,98,5.0,10.0,80,0.00,,,0.00,weatherlink.com 1.10,2013-07-31 14:16:00,
2013-07-31 10:31:00,86.7,79.0,30.14,East,88,5.0,11.0,77,0.00,,,0.00,weatherlink.com 1.10,2013-07-31 14:31:00,
2013-07-31 10:46:00,88.1,78.0,30.15,NW,321,2.0,11.0,73,0.00,,,0.00,weatherlink.com 1.10,2013-07-31 14:46:00,
2013-07-31 11:01:00,88.5,79.0,30.15,East,81,5.0,12.0,74,0.00,,,0.00,weatherlink.com 1.10,2013-07-31 15:01:00,
2013-07-31 11:16:00,88.2,78.0,30.15,East,85,6.0,13.0,71,0.00,,,0.00,weatherlink.com 1.10,2013-07-31 15:16:00,
2013-07-31 11:31:00,88.9,77.0,30.14,SSE,152,7.0,13.0,68,0.00,,,0.00,weatherlink.com 1.10,2013-07-31 15:31:00,
2013-07-31 11:46:00,89.3,76.0,30.14,East,79,9.0,12.0,65,0.00,,,0.00,weatherlink.com 1.10,2013-07-31 15:46:00,
2013-07-31 12:01:00,89.9,77.0,30.14,ENE,68,4.0,14.0,66,0.00,,,0.00,weatherlink.com 1.10,2013-07-31 16:01:00,
2013-07-31 12:16:00,89.7,76.0,30.14,NE,45,5.0,16.0,65,0.00,,,0.00,weatherlink.com 1.10,2013-07-31 16:16:00,
2013-07-31 12:31:00,89.5,78.0,30.14,East,99,7.0,13.0,68,0.00,,,0.00,weatherlink.com 1.10,2013-07-31 16:31:00,
2013-07-31 12:46:00,89.7,79.0,30.13,NE,38,5.0,15.0,70,0.00,,,0.00,weatherlink.com 1.10,2013-07-31 16:46:00,
2013-07-31 13:16:00,89.9,79.0,30.13,ESE,117,8.0,15.0,70,0.00,,,0.00,weatherlink.com 1.10,2013-07-31 17:16:00,
2013-07-31 13:31:00,89.6,78.0,30.13,ENE,67,9.0,14.0,69,0.00,,,0.00,weatherlink.com 1.10,2013-07-31 17:31:00,
2013-07-31 14:16:00,90.8,76.0,30.12,NE,47,6.0,14.0,62,0.00,,,0.00,weatherlink.com 1.10,2013-07-31 18:16:00,
2013-07-31 14:31:00,90.7,74.0,30.11,ESE,107,10.0,13.0,59,0.00,,,0.00,weatherlink.com 1.10,2013-07-31 18:31:00,
2013-07-31 14:46:00,91.0,74.0,30.11,East,98,5.0,14.0,58,0.00,,,0.00,weatherlink.com 1.10,2013-07-31 18:46:00,
2013-07-31 15:01:00,90.5,75.0,30.10,ENE,65,5.0,15.0,61,0.00,,,0.00,weatherlink.com 1.10,2013-07-31 19:01:00,
2013-07-31 15:16:00,90.4,75.0,30.10,East,97,16.0,19.0,61,0.00,,,0.00,weatherlink.com 1.10,2013-07-31 19:16:00,
2013-07-31 15:31:00,90.4,77.0,30.09,NE,51,2.0,13.0,64,0.00,,,0.00,weatherlink.com 1.10,2013-07-31 19:31:00,
2013-07-31 15:46:00,90.0,77.0,30.08,East,97,3.0,14.0,65,0.00,,,0.00,weatherlink.com 1.10,2013-07-31 19:46:00,
2013-07-31 16:16:00,90.6,76.0,30.07,East,80,10.0,15.0,63,0.00,,,0.00,weatherlink.com 1.10,2013-07-31 20:16:00,
2013-07-31 16:31:00,90.2,77.0,30.07,ESE,102,1.0,11.0,65,0.00,,,0.00,weatherlink.com 1.10,2013-07-31 20:31:00,
2013-07-31 16:46:00,90.3,76.0,30.07,East,95,6.0,14.0,63,0.00,,,0.00,weatherlink.com 1.10,2013-07-31 20:46:00,
2013-07-31 17:01:00,89.4,76.0,30.06,ESE,106,5.0,14.0,65,0.00,,,0.00,weatherlink.com 1.10,2013-07-31 21:01:00,
2013-07-31 17:17:00,89.0,76.0,30.06,ENE,71,9.0,14.0,66,0.00,,,0.00,weatherlink.com 1.10,2013-07-31 21:17:00,
2013-07-31 17:32:00,88.6,76.0,30.05,ENE,60,4.0,14.0,67,0.00,,,0.00,weatherlink.com 1.10,2013-07-31 21:32:00,
2013-07-31 17:47:00,88.2,76.0,30.05,ENE,71,3.0,13.0,68,0.00,,,0.00,weatherlink.com 1.10,2013-07-31 21:47:00,
2013-07-31 18:02:00,88.1,77.0,30.05,ENE,66,8.0,13.0,69,0.00,,,0.00,weatherlink.com 1.10,2013-07-31 22:02:00,
2013-07-31 18:17:00,87.5,77.0,30.05,ESE,111,4.0,13.0,70,0.00,,,0.00,weatherlink.com 1.10,2013-07-31 22:17:00,
2013-07-31 18:32:00,87.5,77.0,30.04,ENE,73,9.0,12.0,70,0.00,,,0.00,weatherlink.com 1.10,2013-07-31 22:32:00,
2013-07-31 18:47:00,87.2,77.0,30.05,South,188,3.0,12.0,71,0.00,,,0.00,weatherlink.com 1.10,2013-07-31 22:47:00,
2013-07-31 19:02:00,87.2,77.0,30.06,ENE,76,1.0,11.0,71,0.00,,,0.00,weatherlink.com 1.10,2013-07-31 23:02:00,
2013-07-31 19:17:00,86.7,77.0,30.06,ENE,57,4.0,10.0,72,0.00,,,0.00,weatherlink.com 1.10,2013-07-31 23:17:00,
2013-07-31 19:32:00,85.9,76.0,30.06,ESE,107,7.0,11.0,73,0.00,,,0.00,weatherlink.com 1.10,2013-07-31 23:32:00,
2013-07-31 19:47:00,85.0,76.0,30.07,ENE,71,2.0,9.0,74,0.00,,,0.00,weatherlink.com 1.10,2013-07-31 23:47:00,
2013-07-31 20:02:00,84.4,76.0,30.06,ENE,67,2.0,9.0,76,0.00,,,0.00,weatherlink.com 1.10,2013-08-01 00:02:00,
2013-07-31 20:17:00,84.0,76.0,30.07,ESE,104,4.0,10.0,77,0.00,,,0.00,weatherlink.com 1.10,2013-08-01 00:17:00,
2013-07-31 20:32:00,83.7,76.0,30.07,East,84,3.0,6.0,78,0.00,,,0.00,weatherlink.com 1.10,2013-08-01 00:32:00,
2013-07-31 20:47:00,83.4,76.0,30.08,East,89,2.0,7.0,77,0.00,,,0.00,weatherlink.com 1.10,2013-08-01 00:47:00,
2013-07-31 21:02:00,83.3,76.0,30.08,East,79,0.0,5.0,78,0.00,,,0.00,weatherlink.com 1.10,2013-08-01 01:02:00,
2013-07-31 21:17:00,83.1,75.0,30.08,ENE,65,1.0,7.0,76,0.00,,,0.00,weatherlink.com 1.10,2013-08-01 01:17:00,
2013-07-31 21:32:00,83.0,75.0,30.08,East,91,3.0,10.0,76,0.00,,,0.00,weatherlink.com 1.10,2013-08-01 01:32:00,
2013-07-31 21:47:00,83.0,74.0,30.08,NE,51,3.0,8.0,75,0.00,,,0.00,weatherlink.com 1.10,2013-08-01 01:47:00,
2013-07-31 22:02:00,82.9,75.0,30.08,East,80,0.0,4.0,76,0.00,,,0.00,weatherlink.com 1.10,2013-08-01 02:02:00,
2013-07-31 22:17:00,82.9,75.0,30.09,NE,55,0.0,10.0,76,0.00,,,0.00,weatherlink.com 1.10,2013-08-01 02:17:00,
2013-07-31 22:32:00,83.0,75.0,30.09,East,79,3.0,7.0,76,0.00,,,0.00,weatherlink.com 1.10,2013-08-01 02:32:00,
2013-07-31 22:47:00,82.9,75.0,30.10,East,87,5.0,8.0,77,0.00,,,0.00,weatherlink.com 1.10,2013-08-01 02:47:00,
2013-07-31 23:02:00,82.9,75.0,30.10,ENE,69,3.0,9.0,76,0.00,,,0.00,weatherlink.com 1.10,2013-08-01 03:02:00,
2013-07-31 23:17:00,82.9,75.0,30.09,ENE,67,3.0,9.0,76,0.00,,,0.00,weatherlink.com 1.10,2013-08-01 03:17:00,
2013-07-31 23:32:00,82.8,75.0,30.09,ENE,75,2.0,10.0,76,0.00,,,0.00,weatherlink.com 1.10,2013-08-01 03:32:00,
2013-07-31 23:47:00,82.8,75.0,30.09,ENE,57,3.0,9.0,76,0.00,,,0.00,weatherlink.com 1.10,2013-08-01 03:47:00,